createdAt,value
2018-10-09T00:00:01.275Z,56.73
2018-10-09T00:02:29.458Z,54.43
2018-10-09T00:04:57.708Z,55.13
2018-10-09T00:07:25.935Z,49.47
2018-10-09T00:09:54.118Z,49.80
2018-10-09T00:12:22.303Z,50.23
2018-10-09T00:14:50.442Z,51.47
2018-10-09T00:17:18.653Z,54.77
2018-10-09T00:19:46.837Z,51.50
2018-10-09T00:22:15.055Z,48.40
2018-10-09T00:24:43.266Z,50.10
2018-10-09T00:27:11.484Z,50.47
2018-10-09T00:29:39.715Z,48.10
2018-10-09T00:32:07.993Z,50.47
2018-10-09T00:34:36.218Z,53.43
2018-10-09T00:37:04.354Z,50.50
2018-10-09T00:39:32.514Z,51.67
2018-10-09T00:42:00.689Z,56.97
2018-10-09T00:44:28.857Z,50.07
2018-10-09T00:46:57.006Z,50.87
2018-10-09T00:49:25.231Z,50.47
2018-10-09T00:51:53.426Z,50.50
2018-10-09T00:54:21.611Z,52.60
2018-10-09T00:56:49.737Z,54.27
2018-10-09T00:59:17.918Z,53.17
2018-10-09T01:01:46.093Z,50.67
2018-10-09T01:04:14.270Z,54.20
2018-10-09T01:06:42.496Z,49.90
2018-10-09T01:09:10.721Z,51.37
2018-10-09T01:11:38.838Z,52.67
2018-10-09T01:14:06.986Z,50.63
2018-10-09T01:16:35.155Z,51.17
2018-10-09T01:19:03.366Z,50.73
2018-10-09T01:21:31.546Z,50.50
2018-10-09T01:23:59.711Z,51.90
2018-10-09T01:26:27.897Z,51.10
2018-10-09T01:28:56.064Z,50.90
2018-10-09T01:31:24.248Z,49.90
2018-10-09T01:33:52.442Z,49.67
2018-10-09T01:36:20.623Z,51.70
2018-10-09T01:38:48.822Z,51.83
2018-10-09T01:41:17.032Z,57.13
2018-10-09T01:43:45.221Z,50.23
2018-10-09T01:46:13.505Z,54.43
2018-10-09T01:48:41.701Z,49.90
2018-10-09T01:51:09.862Z,50.03
2018-10-09T01:53:38.049Z,52.10
2018-10-09T01:56:06.235Z,57.87
2018-10-09T01:58:34.481Z,53.10
2018-10-09T02:01:02.682Z,49.37
2018-10-09T02:03:30.857Z,49.97
2018-10-09T02:05:59.101Z,52.37
2018-10-09T02:08:27.347Z,50.83
2018-10-09T02:10:55.883Z,53.90
2018-10-09T02:13:24.059Z,54.33
2018-10-09T02:15:52.284Z,51.00
2018-10-09T02:18:20.466Z,54.00
2018-10-09T02:20:48.624Z,50.73
2018-10-09T02:23:16.790Z,52.90
2018-10-09T02:25:44.946Z,50.17
2018-10-09T02:28:13.177Z,49.63
2018-10-09T02:30:41.445Z,49.53
2018-10-09T02:33:09.791Z,50.50
2018-10-09T02:35:38.044Z,53.23
2018-10-09T02:38:06.375Z,52.27
2018-10-09T02:40:34.665Z,49.83
2018-10-09T02:43:02.858Z,51.17
2018-10-09T02:45:31.038Z,54.13
2018-10-09T02:47:59.224Z,56.97
2018-10-09T02:50:27.386Z,53.87
2018-10-09T02:52:55.610Z,50.03
2018-10-09T02:55:23.809Z,52.27
2018-10-09T02:57:51.998Z,52.00
2018-10-09T03:00:20.229Z,51.97
2018-10-09T03:02:48.432Z,52.03
2018-10-09T03:05:16.599Z,51.57
2018-10-09T03:07:44.811Z,54.67
2018-10-09T03:10:13.042Z,52.33
2018-10-09T03:12:41.208Z,55.60
2018-10-09T03:15:09.389Z,51.57
2018-10-09T03:17:37.591Z,51.13
2018-10-09T03:20:05.847Z,50.80
2018-10-09T03:22:34.014Z,50.50
2018-10-09T03:25:02.230Z,49.43
2018-10-09T03:27:30.385Z,51.03
2018-10-09T03:29:58.707Z,52.70
2018-10-09T03:32:26.921Z,48.67
2018-10-09T03:34:55.174Z,52.07
2018-10-09T03:37:23.500Z,50.00
2018-10-09T03:39:51.702Z,52.37
2018-10-09T03:42:19.865Z,52.97
2018-10-09T03:44:48.077Z,49.27
2018-10-09T03:47:16.249Z,53.27
2018-10-09T03:49:44.462Z,52.90
2018-10-09T03:52:12.681Z,55.43
2018-10-09T03:54:40.910Z,50.00
2018-10-09T03:57:09.124Z,52.60
2018-10-09T03:59:37.313Z,50.47
2018-10-09T04:02:05.524Z,52.20
2018-10-09T04:04:33.825Z,49.83
2018-10-09T04:07:02.074Z,55.57
2018-10-09T04:09:30.325Z,49.87
2018-10-09T04:11:58.445Z,51.07
2018-10-09T04:14:26.626Z,51.53
2018-10-09T04:16:54.814Z,53.70
2018-10-09T04:19:23.075Z,51.70
2018-10-09T04:21:51.153Z,51.43
2018-10-09T04:24:19.389Z,49.93
2018-10-09T04:26:47.623Z,53.23
2018-10-09T04:29:15.861Z,52.87
2018-10-09T04:31:44.066Z,49.07
2018-10-09T04:34:12.260Z,53.97
2018-10-09T04:36:40.419Z,49.50
2018-10-09T04:39:09.401Z,53.23
2018-10-09T04:41:37.865Z,50.97
2018-10-09T04:44:06.136Z,50.53
2018-10-09T04:46:34.310Z,53.33
2018-10-09T04:49:02.491Z,55.90
2018-10-09T04:51:31.095Z,54.27
2018-10-09T04:53:59.264Z,56.47
2018-10-09T04:56:27.464Z,56.50
2018-10-09T04:58:55.663Z,55.23
2018-10-09T05:01:23.890Z,52.40
2018-10-09T05:03:52.089Z,51.63
2018-10-09T05:06:20.297Z,50.37
2018-10-09T05:08:48.530Z,52.20
2018-10-09T05:11:16.697Z,52.73
2018-10-09T05:13:44.864Z,55.03
2018-10-09T05:16:13.042Z,48.40
2018-10-09T05:18:41.217Z,49.80
2018-10-09T05:21:09.381Z,52.00
2018-10-09T05:23:37.625Z,48.73
2018-10-09T05:26:05.813Z,54.30
2018-10-09T05:28:34.021Z,52.97
2018-10-09T05:31:02.325Z,51.70
2018-10-09T05:33:30.466Z,50.10
2018-10-09T05:35:58.690Z,52.20
2018-10-09T05:38:26.873Z,55.00
2018-10-09T05:40:55.089Z,49.33
2018-10-09T05:43:23.261Z,49.50
2018-10-09T05:45:51.451Z,49.80
2018-10-09T05:48:19.622Z,50.30
2018-10-09T05:50:47.817Z,48.37
2018-10-09T05:53:15.966Z,55.70
2018-10-09T05:55:44.162Z,49.57
2018-10-09T05:58:12.451Z,51.90
2018-10-09T06:00:40.581Z,50.60
2018-10-09T06:03:08.755Z,53.33
2018-10-09T06:05:36.939Z,53.90
2018-10-09T06:08:05.151Z,53.30
2018-10-09T06:10:33.393Z,52.03
2018-10-09T06:13:01.554Z,53.90
2018-10-09T06:15:29.751Z,54.87
2018-10-09T06:17:57.906Z,50.37
2018-10-09T06:20:26.143Z,49.50
2018-10-09T06:22:54.478Z,55.17
2018-10-09T06:25:22.674Z,49.60
2018-10-09T06:27:50.843Z,53.50
2018-10-09T06:30:19.041Z,56.13
2018-10-09T06:32:47.240Z,53.00
2018-10-09T06:35:15.404Z,49.37
2018-10-09T06:37:43.587Z,52.30
2018-10-09T06:40:11.738Z,54.07
2018-10-09T06:42:39.938Z,49.37
2018-10-09T06:45:08.193Z,49.93
2018-10-09T06:47:37.237Z,54.47
2018-10-09T06:50:05.398Z,52.07
2018-10-09T06:52:33.736Z,53.53
2018-10-09T06:55:01.936Z,51.00
2018-10-09T06:57:30.158Z,51.90
2018-10-09T06:59:58.431Z,51.10
2018-10-09T07:02:26.639Z,52.33
2018-10-09T07:04:54.831Z,50.80
2018-10-09T07:07:22.995Z,52.27
2018-10-09T07:09:51.131Z,51.40
2018-10-09T07:12:19.279Z,52.33
2018-10-09T07:14:47.405Z,50.00
2018-10-09T07:17:15.558Z,50.40
2018-10-09T07:19:43.703Z,49.47
2018-10-09T07:22:11.845Z,53.17
2018-10-09T07:24:40.054Z,53.93
2018-10-09T07:27:08.203Z,54.10
2018-10-09T07:29:36.345Z,53.10
2018-10-09T07:32:04.486Z,58.73
2018-10-09T07:34:32.619Z,54.33
2018-10-09T07:37:00.871Z,51.50
2018-10-09T07:39:29.010Z,56.20
2018-10-09T07:41:57.165Z,55.43
2018-10-09T07:44:25.416Z,55.77
2018-10-09T07:46:53.517Z,55.43
2018-10-09T07:49:21.699Z,54.60
2018-10-09T07:51:49.842Z,53.30
2018-10-09T07:54:17.965Z,56.27
2018-10-09T07:56:46.102Z,56.70
2018-10-09T07:59:14.244Z,55.77
2018-10-09T08:01:42.423Z,56.43
2018-10-09T08:04:10.544Z,54.73
2018-10-09T08:06:38.719Z,53.07
2018-10-09T08:09:09.250Z,60.13
2018-10-09T08:11:37.392Z,54.47
2018-10-09T08:14:06.062Z,54.40
2018-10-09T08:16:34.181Z,58.17
2018-10-09T08:19:02.871Z,56.90
2018-10-09T08:21:31.015Z,52.17
2018-10-09T08:23:59.182Z,56.30
2018-10-09T08:26:27.316Z,58.63
2018-10-09T08:28:55.447Z,58.70
2018-10-09T08:31:23.605Z,60.17
2018-10-09T08:33:51.932Z,56.97
2018-10-09T08:36:20.073Z,57.47
2018-10-09T08:38:48.219Z,56.70
2018-10-09T08:41:16.404Z,57.73
2018-10-09T08:43:44.541Z,64.33
2018-10-09T08:46:12.743Z,58.07
2018-10-09T08:48:41.573Z,56.27
2018-10-09T08:51:09.738Z,58.87
2018-10-09T08:53:37.911Z,58.53
2018-10-09T08:56:06.347Z,54.37
2018-10-09T08:58:34.482Z,55.70
2018-10-09T09:01:02.637Z,55.87
2018-10-09T09:03:30.937Z,55.57
2018-10-09T09:05:59.060Z,56.23
2018-10-09T09:08:27.211Z,55.33
2018-10-09T09:10:55.363Z,55.00
2018-10-09T09:13:23.506Z,56.13
2018-10-09T09:15:51.670Z,59.27
2018-10-09T09:18:19.842Z,57.77
2018-10-09T09:20:48.011Z,57.07
2018-10-09T09:23:16.151Z,59.50
2018-10-09T09:25:44.286Z,58.03
2018-10-09T09:28:12.436Z,57.77
2018-10-09T09:30:40.577Z,54.00
2018-10-09T09:33:08.801Z,58.37
2018-10-09T09:35:36.887Z,57.93
2018-10-09T09:38:05.045Z,58.73
2018-10-09T09:40:33.285Z,57.57
2018-10-09T09:43:01.437Z,58.37
2018-10-09T09:45:29.681Z,58.30
2018-10-09T09:47:57.841Z,57.30
2018-10-09T09:50:25.986Z,56.70
2018-10-09T09:52:54.122Z,59.10
2018-10-09T09:55:22.274Z,59.77
2018-10-09T09:57:50.459Z,55.67
2018-10-09T10:00:24.058Z,58.90
2018-10-09T10:02:52.206Z,60.73
2018-10-09T10:05:20.345Z,58.60
2018-10-09T10:07:48.481Z,61.60
2018-10-09T10:10:16.632Z,63.23
2018-10-09T10:12:44.797Z,61.10
2018-10-09T10:15:12.955Z,58.10
2018-10-09T10:17:41.153Z,59.27
2018-10-09T10:20:09.316Z,59.00
2018-10-09T10:22:37.495Z,60.10
2018-10-09T10:25:05.635Z,57.53
2018-10-09T10:27:33.897Z,60.40
2018-10-09T10:30:02.066Z,61.13
2018-10-09T10:32:30.264Z,59.70
2018-10-09T10:34:58.417Z,56.33
2018-10-09T10:37:26.562Z,54.60
2018-10-09T10:39:54.708Z,57.30
2018-10-09T10:42:22.850Z,56.00
2018-10-09T10:44:50.995Z,56.90
2018-10-09T10:47:19.142Z,57.07
2018-10-09T10:49:47.278Z,55.90
2018-10-09T10:52:15.422Z,55.40
2018-10-09T10:54:43.579Z,55.87
2018-10-09T10:57:11.725Z,54.60
2018-10-09T10:59:39.868Z,54.07
2018-10-09T11:02:08.015Z,56.97
2018-10-09T11:04:36.146Z,57.03
2018-10-09T11:07:04.281Z,55.63
2018-10-09T11:09:32.430Z,54.60
2018-10-09T11:12:00.594Z,54.00
2018-10-09T11:14:28.744Z,54.90
2018-10-09T11:16:56.885Z,55.03
2018-10-09T11:19:25.038Z,54.70
2018-10-09T11:21:53.174Z,53.40
2018-10-09T11:24:21.347Z,54.80
2018-10-09T11:26:49.508Z,54.20
2018-10-09T11:29:17.654Z,57.97
2018-10-09T11:31:45.822Z,55.93
2018-10-09T11:34:13.978Z,55.60
2018-10-09T11:36:42.133Z,52.40
2018-10-09T11:39:10.492Z,53.60
2018-10-09T11:41:38.658Z,54.43
2018-10-09T11:44:06.841Z,54.03
2018-10-09T11:46:35.921Z,54.20
2018-10-09T11:49:04.133Z,57.23
2018-10-09T11:51:32.275Z,53.10
2018-10-09T11:54:00.463Z,57.50
2018-10-09T11:56:28.624Z,52.57
2018-10-09T11:58:56.814Z,55.60
2018-10-09T12:01:24.927Z,55.77
2018-10-09T12:03:53.086Z,56.50
2018-10-09T12:06:21.258Z,54.03
2018-10-09T12:08:49.434Z,54.97
2018-10-09T12:11:17.585Z,56.70
2018-10-09T12:13:45.784Z,60.53
2018-10-09T12:16:13.925Z,54.17
2018-10-09T12:18:42.161Z,54.93
2018-10-09T12:21:10.302Z,53.50
2018-10-09T12:23:45.084Z,53.80
2018-10-09T12:26:13.217Z,55.93
2018-10-09T12:28:41.381Z,52.47
2018-10-09T12:31:09.531Z,58.03
2018-10-09T12:33:41.378Z,55.50
2018-10-09T12:36:09.504Z,58.33
2018-10-09T12:38:37.650Z,53.87
2018-10-09T12:41:05.808Z,55.03
2018-10-09T12:43:33.929Z,54.70
2018-10-09T12:46:02.067Z,55.13
2018-10-09T12:48:30.199Z,57.93
2018-10-09T12:50:58.346Z,54.27
2018-10-09T12:53:26.494Z,58.10
2018-10-09T12:55:54.630Z,55.37
2018-10-09T12:58:22.784Z,54.47
2018-10-09T13:00:50.904Z,56.30
2018-10-09T13:03:19.025Z,55.37
2018-10-09T13:05:47.171Z,54.87
2018-10-09T13:08:15.298Z,54.37
2018-10-09T13:10:43.438Z,53.50
2018-10-09T13:13:11.553Z,55.47
2018-10-09T13:15:39.685Z,56.90
2018-10-09T13:18:07.830Z,57.10
2018-10-09T13:20:36.035Z,53.60
2018-10-09T13:23:04.166Z,51.80
2018-10-09T13:25:32.302Z,57.00
2018-10-09T13:28:00.426Z,55.80
2018-10-09T13:30:28.617Z,53.53
2018-10-09T13:32:56.748Z,51.10
2018-10-09T13:35:24.906Z,54.67
2018-10-09T13:37:53.097Z,52.87
2018-10-09T13:40:21.213Z,53.67
2018-10-09T13:42:49.347Z,55.30
2018-10-09T13:45:17.474Z,53.30
2018-10-09T13:47:45.679Z,53.83
2018-10-09T13:50:13.779Z,52.77
2018-10-09T13:52:41.874Z,51.97
2018-10-09T13:55:10.055Z,54.57
2018-10-09T13:57:38.200Z,53.43
2018-10-09T14:00:06.355Z,56.30
2018-10-09T14:02:34.489Z,53.13
2018-10-09T14:05:02.615Z,59.07
2018-10-09T14:07:30.773Z,54.10
2018-10-09T14:09:58.960Z,52.13
2018-10-09T14:12:27.073Z,53.00
2018-10-09T14:14:55.218Z,55.13
2018-10-09T14:17:23.385Z,52.77
2018-10-09T14:19:51.531Z,53.70
2018-10-09T14:22:19.683Z,52.97
2018-10-09T14:24:47.795Z,54.37
2018-10-09T14:27:15.947Z,57.77
2018-10-09T14:29:44.083Z,54.90
2018-10-09T14:32:12.285Z,58.00
2018-10-09T14:34:40.427Z,55.80
2018-10-09T14:37:08.715Z,54.37
2018-10-09T14:39:36.861Z,54.40
2018-10-09T14:42:05.012Z,55.67
2018-10-09T14:44:33.169Z,55.03
2018-10-09T14:47:01.313Z,55.00
2018-10-09T14:49:29.438Z,55.37
2018-10-09T14:51:57.567Z,54.37
2018-10-09T14:54:25.698Z,56.40
2018-10-09T14:56:57.574Z,55.97
2018-10-09T14:59:25.721Z,54.07
2018-10-09T15:01:53.854Z,55.43
2018-10-09T15:04:21.981Z,53.80
2018-10-09T15:06:50.270Z,56.57
2018-10-09T15:09:18.246Z,54.50
2018-10-09T15:11:46.362Z,53.70
2018-10-09T15:14:14.495Z,53.30
2018-10-09T15:16:42.698Z,55.50
2018-10-09T15:19:10.802Z,54.53
2018-10-09T15:21:39.236Z,53.53
2018-10-09T15:24:07.355Z,60.20
2018-10-09T15:26:35.528Z,54.80
2018-10-09T15:29:03.722Z,54.70
2018-10-09T15:31:31.883Z,56.10
2018-10-09T15:34:00.029Z,55.07
2018-10-09T15:36:28.167Z,54.57
2018-10-09T15:38:56.294Z,53.27
2018-10-09T15:41:24.607Z,54.47
2018-10-09T15:43:52.893Z,52.47
2018-10-09T15:46:21.013Z,54.77
2018-10-09T15:48:49.136Z,54.57
2018-10-09T15:51:17.665Z,54.03
2018-10-09T15:53:45.832Z,55.07
2018-10-09T15:56:13.989Z,52.40
2018-10-09T15:58:42.117Z,55.63
2018-10-09T16:01:10.307Z,54.03
2018-10-09T16:03:38.468Z,57.23
2018-10-09T16:06:06.853Z,56.93
2018-10-09T16:08:35.009Z,53.97
2018-10-09T16:11:03.162Z,54.70
2018-10-09T16:13:31.303Z,58.00
2018-10-09T16:15:59.514Z,57.53
2018-10-09T16:18:27.688Z,52.40
2018-10-09T16:20:55.851Z,52.33
2018-10-09T16:23:23.985Z,56.10
2018-10-09T16:25:52.161Z,63.30
2018-10-09T16:28:20.342Z,55.40
2018-10-09T16:30:48.479Z,54.40
2018-10-09T16:33:16.623Z,55.10
2018-10-09T16:35:44.796Z,52.10
2018-10-09T16:38:12.942Z,54.00
2018-10-09T16:40:41.124Z,64.50
2018-10-09T16:43:09.304Z,53.73
2018-10-09T16:45:37.444Z,55.63
2018-10-09T16:48:05.690Z,56.37
2018-10-09T16:50:33.848Z,53.80
2018-10-09T16:55:36.450Z,52.17
2018-10-09T16:58:04.587Z,54.90
2018-10-09T17:00:32.752Z,53.07
2018-10-09T17:03:00.964Z,55.23
2018-10-09T17:05:29.116Z,53.87
2018-10-09T17:07:57.266Z,58.13
2018-10-09T17:13:00.063Z,55.93
2018-10-09T17:15:28.232Z,52.13
2018-10-09T17:17:56.418Z,57.50
2018-10-09T17:20:24.593Z,58.70
2018-10-09T17:22:52.759Z,62.50
2018-10-09T17:25:20.891Z,52.37
2018-10-09T17:27:49.024Z,51.87
2018-10-09T17:30:17.175Z,53.00
2018-10-09T17:32:52.022Z,54.20
2018-10-09T17:35:20.205Z,54.70
2018-10-09T17:37:48.256Z,64.93
2018-10-09T17:40:16.495Z,57.23
2018-10-09T17:42:44.745Z,71.60
2018-10-09T17:45:12.901Z,54.67
2018-10-09T17:47:41.042Z,58.10
2018-10-09T17:50:09.255Z,54.43
2018-10-09T17:52:37.390Z,53.50
2018-10-09T17:55:05.654Z,60.60
2018-10-09T17:57:33.951Z,62.27
2018-10-09T18:00:02.117Z,60.17
2018-10-09T18:02:30.321Z,65.30
2018-10-09T18:04:58.461Z,58.23
2018-10-09T18:07:26.577Z,56.50
2018-10-09T18:09:54.724Z,53.27
2018-10-09T18:12:22.850Z,54.50
2018-10-09T18:14:51.064Z,61.03
2018-10-09T18:17:19.165Z,55.43
2018-10-09T18:19:47.285Z,56.97
2018-10-09T18:22:15.450Z,59.40
2018-10-09T18:24:43.663Z,59.10
2018-10-09T18:27:11.786Z,55.33
2018-10-09T18:29:39.943Z,58.30
2018-10-09T18:32:08.112Z,55.90
2018-10-09T18:34:36.271Z,59.80
2018-10-09T18:37:04.406Z,62.87
2018-10-09T18:39:32.586Z,58.60
2018-10-09T18:42:00.821Z,58.17
2018-10-09T18:44:28.957Z,57.53
2018-10-09T18:46:57.125Z,59.20
2018-10-09T18:49:25.302Z,61.10
2018-10-09T18:51:53.454Z,63.47
2018-10-09T18:54:21.638Z,55.37
2018-10-09T18:56:49.888Z,57.40
2018-10-09T18:59:17.965Z,57.10
2018-10-09T19:01:46.125Z,59.23
2018-10-09T19:04:14.263Z,60.30
2018-10-09T19:06:42.529Z,60.07
2018-10-09T19:09:11.944Z,62.00
2018-10-09T19:11:40.150Z,65.03
2018-10-09T19:14:08.321Z,67.37
2018-10-09T19:16:36.450Z,67.50
2018-10-09T19:19:04.610Z,58.53
2018-10-09T19:21:32.758Z,69.03
2018-10-09T19:24:00.898Z,63.20
2018-10-09T19:26:29.047Z,59.33
2018-10-09T19:28:57.174Z,59.13
2018-10-09T19:31:25.350Z,61.80
2018-10-09T19:33:53.498Z,58.50
2018-10-09T19:36:21.683Z,58.83
2018-10-09T19:38:49.830Z,67.67
2018-10-09T19:41:17.970Z,61.23
2018-10-09T19:43:46.115Z,55.37
2018-10-09T19:46:14.251Z,56.77
2018-10-09T19:48:42.375Z,57.60
2018-10-09T19:51:10.735Z,61.77
2018-10-09T19:53:38.710Z,59.63
2018-10-09T19:56:06.895Z,60.07
2018-10-09T19:58:35.061Z,59.77
2018-10-09T20:01:03.318Z,56.73
2018-10-09T20:03:31.406Z,63.63
2018-10-09T20:05:59.584Z,60.07
2018-10-09T20:08:27.721Z,61.03
2018-10-09T20:10:55.901Z,59.40
2018-10-09T20:13:24.163Z,78.20
2018-10-09T20:15:52.318Z,81.63
2018-10-09T20:18:20.475Z,69.17
2018-10-09T20:20:48.637Z,58.63
2018-10-09T20:23:16.797Z,57.50
2018-10-09T20:25:44.931Z,58.10
2018-10-09T20:28:13.071Z,65.23
2018-10-09T20:30:41.277Z,64.37
2018-10-09T20:33:09.661Z,63.83
2018-10-09T20:35:37.870Z,69.77
2018-10-09T20:38:06.183Z,74.87
2018-10-09T20:40:34.325Z,63.57
2018-10-09T20:43:02.441Z,62.27
2018-10-09T20:45:30.598Z,57.80
2018-10-09T20:47:58.747Z,58.00
2018-10-09T20:50:26.970Z,57.00
2018-10-09T20:52:55.326Z,59.20
2018-10-09T20:55:23.506Z,59.13
2018-10-09T20:57:51.665Z,54.67
2018-10-09T21:00:19.826Z,57.37
2018-10-09T21:02:47.943Z,57.87
2018-10-09T21:05:16.151Z,55.40
2018-10-09T21:07:44.258Z,54.87
2018-10-09T21:10:12.420Z,53.57
2018-10-09T21:12:40.551Z,54.73
2018-10-09T21:15:08.692Z,55.87
2018-10-09T21:17:36.940Z,53.00
2018-10-09T21:20:05.347Z,53.40
2018-10-09T21:22:33.519Z,53.57
2018-10-09T21:25:01.653Z,53.53
2018-10-09T21:27:29.817Z,57.47
2018-10-09T21:29:58.025Z,66.10
2018-10-09T21:32:26.102Z,53.67
2018-10-09T21:34:54.246Z,57.20
2018-10-09T21:37:22.390Z,55.53
2018-10-09T21:39:50.518Z,56.10
2018-10-09T21:42:18.654Z,56.17
2018-10-09T21:44:46.814Z,51.47
2018-10-09T21:47:14.982Z,56.20
2018-10-09T21:49:43.134Z,53.90
2018-10-09T21:52:11.285Z,62.70
2018-10-09T21:54:39.434Z,51.60
2018-10-09T21:57:07.587Z,53.60
2018-10-09T21:59:35.702Z,54.33
2018-10-09T22:02:03.843Z,51.57
2018-10-09T22:04:32.016Z,53.47
2018-10-09T22:07:00.161Z,51.00
2018-10-09T22:09:28.297Z,54.90
2018-10-09T22:11:56.453Z,50.60
2018-10-09T22:14:24.577Z,54.37
2018-10-09T22:16:52.737Z,68.40
2018-10-09T22:19:20.873Z,62.57
2018-10-09T22:21:49.085Z,53.87
2018-10-09T22:24:17.278Z,53.63
2018-10-09T22:26:45.365Z,53.00
2018-10-09T22:29:13.507Z,52.83
2018-10-09T22:31:41.663Z,55.10
2018-10-09T22:34:09.794Z,55.33
2018-10-09T22:36:37.958Z,53.47
2018-10-09T22:39:07.442Z,52.63
2018-10-09T22:41:35.585Z,55.20
2018-10-09T22:44:03.776Z,51.37
2018-10-09T22:46:31.910Z,62.07
2018-10-09T22:49:00.042Z,53.83
2018-10-09T22:51:28.213Z,51.00
2018-10-09T22:53:56.349Z,54.00
2018-10-09T22:56:24.479Z,55.23
2018-10-09T22:58:52.614Z,49.47
2018-10-09T23:01:20.759Z,50.50
2018-10-09T23:03:48.890Z,52.83
2018-10-09T23:08:51.481Z,54.47
2018-10-09T23:11:19.622Z,59.03
2018-10-09T23:13:47.746Z,53.43
2018-10-09T23:16:15.894Z,54.50
2018-10-09T23:18:44.086Z,52.30
2018-10-09T23:21:12.214Z,53.60
2018-10-09T23:23:40.342Z,51.93
2018-10-09T23:26:08.499Z,57.60
2018-10-09T23:28:36.627Z,50.40
2018-10-09T23:31:04.790Z,52.87
2018-10-09T23:33:32.918Z,53.00
2018-10-09T23:36:01.062Z,48.83
2018-10-09T23:38:29.198Z,52.70
2018-10-09T23:40:57.351Z,54.87
2018-10-09T23:43:25.493Z,59.97
2018-10-09T23:45:53.633Z,58.10
2018-10-09T23:48:21.761Z,53.60
2018-10-09T23:50:49.905Z,51.80
2018-10-09T23:53:18.038Z,57.37
2018-10-09T23:55:46.169Z,52.50
2018-10-09T23:58:14.298Z,53.93
